Terminal Aerodrome Forecast
Issued by NWS

Home | Current Version | Previous Version | Text Only | Print | Product List | Glossary On
Versions: 1 2 3 4 5 6 7 8 9 10 11 12
000
FTUS45 KBOI 191735
TAFMYL
TAF
KMYL 191735Z 1918/2018 20007KT P6SM SCT200
     FM192000 20011G18KT P6SM SCT200
     FM200200 VRB05KT P6SM SCT060 BKN200
     FM200500 33011KT P6SM BKN060 OVC150
     FM200600 30005KT P6SM SCT060 BKN150=

USA.gov is the U.S. government's official web portal to all federal, state and local government web resources and services.